sensor_id;sensor_type;location;lat;lon;timestamp;temperature;humidity
7498;DHT22;3790;48.806;9.140;2022-09-03T00:00:48;17.20;99.90
7498;DHT22;3790;48.806;9.140;2022-09-03T00:11:23;17.40;99.90
7498;DHT22;3790;48.806;9.140;2022-09-03T00:16:28;17.50;99.90
7498;DHT22;3790;48.806;9.140;2022-09-03T00:22:37;17.60;99.90
7498;DHT22;3790;48.806;9.140;2022-09-03T00:27:13;17.70;99.90
7498;DHT22;3790;48.806;9.140;2022-09-03T00:32:42;17.70;99.90
7498;DHT22;3790;48.806;9.140;2022-09-03T00:37:46;17.80;99.90
7498;DHT22;3790;48.806;9.140;2022-09-03T00:43:11;17.80;99.90
7498;DHT22;3790;48.806;9.140;2022-09-03T00:48:26;17.80;99.90
7498;DHT22;3790;48.806;9.140;2022-09-03T00:59:04;17.80;99.90
7498;DHT22;3790;48.806;9.140;2022-09-03T01:04:27;17.80;99.90
7498;DHT22;3790;48.806;9.140;2022-09-03T01:25:48;18.10;99.90
7498;DHT22;3790;48.806;9.140;2022-09-03T01:31:09;18.10;99.90
7498;DHT22;3790;48.806;9.140;2022-09-03T01:36:27;18.10;99.90
7498;DHT22;3790;48.806;9.140;2022-09-03T01:42:10;18.00;99.90
7498;DHT22;3790;48.806;9.140;2022-09-03T01:58:32;17.90;99.90
7498;DHT22;3790;48.806;9.140;2022-09-03T02:03:38;18.00;99.90
7498;DHT22;3790;48.806;9.140;2022-09-03T02:08:39;18.10;99.90
7498;DHT22;3790;48.806;9.140;2022-09-03T02:13:49;18.00;99.90
7498;DHT22;3790;48.806;9.140;2022-09-03T02:18:57;18.00;99.90
7498;DHT22;3790;48.806;9.140;2022-09-03T02:23:58;17.80;99.90
7498;DHT22;3790;48.806;9.140;2022-09-03T02:29:00;17.70;99.90
7498;DHT22;3790;48.806;9.140;2022-09-03T02:34:01;17.60;99.90
7498;DHT22;3790;48.806;9.140;2022-09-03T02:39:02;17.60;99.90
7498;DHT22;3790;48.806;9.140;2022-09-03T02:44:17;17.60;99.90
7498;DHT22;3790;48.806;9.140;2022-09-03T02:49:23;17.40;99.90
7498;DHT22;3790;48.806;9.140;2022-09-03T02:54:23;17.40;99.90
7498;DHT22;3790;48.806;9.140;2022-09-03T02:59:25;17.20;99.90
7498;DHT22;3790;48.806;9.140;2022-09-03T03:04:29;17.10;99.90
7498;DHT22;3790;48.806;9.140;2022-09-03T03:09:29;16.90;99.90
7498;DHT22;3790;48.806;9.140;2022-09-03T03:14:30;16.80;99.90
7498;DHT22;3790;48.806;9.140;2022-09-03T03:19:30;16.90;99.90
7498;DHT22;3790;48.806;9.140;2022-09-03T03:24:31;17.00;99.90
7498;DHT22;3790;48.806;9.140;2022-09-03T03:29:32;17.00;99.90
7498;DHT22;3790;48.806;9.140;2022-09-03T03:34:33;16.90;99.90
7498;DHT22;3790;48.806;9.140;2022-09-03T03:39:33;16.90;99.90
7498;DHT22;3790;48.806;9.140;2022-09-03T03:44:34;16.90;99.90
7498;DHT22;3790;48.806;9.140;2022-09-03T03:49:34;16.90;99.90
7498;DHT22;3790;48.806;9.140;2022-09-03T03:54:35;16.80;99.90
7498;DHT22;3790;48.806;9.140;2022-09-03T03:59:35;16.80;99.90
7498;DHT22;3790;48.806;9.140;2022-09-03T04:10:33;16.80;99.90
7498;DHT22;3790;48.806;9.140;2022-09-03T04:15:33;16.80;99.90
7498;DHT22;3790;48.806;9.140;2022-09-03T04:20:37;16.90;99.90
7498;DHT22;3790;48.806;9.140;2022-09-03T04:25:38;17.00;99.90
7498;DHT22;3790;48.806;9.140;2022-09-03T04:30:40;16.90;99.90
7498;DHT22;3790;48.806;9.140;2022-09-03T04:35:40;16.80;99.90
7498;DHT22;3790;48.806;9.140;2022-09-03T04:40:41;16.60;99.90
7498;DHT22;3790;48.806;9.140;2022-09-03T04:45:41;16.60;99.90
7498;DHT22;3790;48.806;9.140;2022-09-03T04:50:42;16.60;99.90
7498;DHT22;3790;48.806;9.140;2022-09-03T04:55:42;16.70;99.90
7498;DHT22;3790;48.806;9.140;2022-09-03T05:00:43;16.80;99.90
7498;DHT22;3790;48.806;9.140;2022-09-03T05:05:51;16.90;99.90
7498;DHT22;3790;48.806;9.140;2022-09-03T05:10:59;17.20;99.90
7498;DHT22;3790;48.806;9.140;2022-09-03T05:16:04;17.40;99.90
7498;DHT22;3790;48.806;9.140;2022-09-03T05:21:08;17.40;99.90
7498;DHT22;3790;48.806;9.140;2022-09-03T05:26:11;17.40;99.90
7498;DHT22;3790;48.806;9.140;2022-09-03T05:31:17;17.50;99.90
7498;DHT22;3790;48.806;9.140;2022-09-03T05:36:20;17.50;99.90
7498;DHT22;3790;48.806;9.140;2022-09-03T05:41:25;17.70;99.90
7498;DHT22;3790;48.806;9.140;2022-09-03T05:46:31;17.90;99.90
7498;DHT22;3790;48.806;9.140;2022-09-03T05:51:34;18.20;99.90
7498;DHT22;3790;48.806;9.140;2022-09-03T05:56:36;18.30;99.90
7498;DHT22;3790;48.806;9.140;2022-09-03T06:01:42;18.50;99.90
7498;DHT22;3790;48.806;9.140;2022-09-03T06:06:45;18.60;99.90
7498;DHT22;3790;48.806;9.140;2022-09-03T06:11:46;18.70;99.90
7498;DHT22;3790;48.806;9.140;2022-09-03T06:16:49;18.80;99.90
7498;DHT22;3790;48.806;9.140;2022-09-03T06:21:51;18.90;99.90
7498;DHT22;3790;48.806;9.140;2022-09-03T06:26:52;19.00;99.90
7498;DHT22;3790;48.806;9.140;2022-09-03T06:31:52;19.10;99.90
7498;DHT22;3790;48.806;9.140;2022-09-03T06:36:53;19.30;99.90
7498;DHT22;3790;48.806;9.140;2022-09-03T06:41:53;19.30;99.90
7498;DHT22;3790;48.806;9.140;2022-09-03T06:46:54;19.10;99.90
7498;DHT22;3790;48.806;9.140;2022-09-03T06:51:54;19.50;99.90
7498;DHT22;3790;48.806;9.140;2022-09-03T06:56:55;19.80;99.90
7498;DHT22;3790;48.806;9.140;2022-09-03T07:01:55;20.20;99.90
7498;DHT22;3790;48.806;9.140;2022-09-03T07:06:57;20.50;99.90
7498;DHT22;3790;48.806;9.140;2022-09-03T07:11:58;20.70;99.90
7498;DHT22;3790;48.806;9.140;2022-09-03T07:16:58;20.70;99.90
7498;DHT22;3790;48.806;9.140;2022-09-03T07:21:59;20.90;99.90
7498;DHT22;3790;48.806;9.140;2022-09-03T07:27:00;21.10;99.90
7498;DHT22;3790;48.806;9.140;2022-09-03T07:32:01;21.20;99.90
7498;DHT22;3790;48.806;9.140;2022-09-03T07:37:02;21.40;99.90
7498;DHT22;3790;48.806;9.140;2022-09-03T07:42:04;21.40;99.90
7498;DHT22;3790;48.806;9.140;2022-09-03T07:47:07;21.60;99.90
7498;DHT22;3790;48.806;9.140;2022-09-03T07:52:08;21.60;99.90
7498;DHT22;3790;48.806;9.140;2022-09-03T07:57:09;21.90;99.90
7498;DHT22;3790;48.806;9.140;2022-09-03T08:02:10;21.90;99.90
7498;DHT22;3790;48.806;9.140;2022-09-03T08:07:10;22.20;99.90
7498;DHT22;3790;48.806;9.140;2022-09-03T08:12:11;22.10;99.90
7498;DHT22;3790;48.806;9.140;2022-09-03T08:17:11;22.10;99.90
7498;DHT22;3790;48.806;9.140;2022-09-03T08:22:12;22.40;99.90
7498;DHT22;3790;48.806;9.140;2022-09-03T08:27:13;22.60;99.90
7498;DHT22;3790;48.806;9.140;2022-09-03T08:32:13;22.60;99.90
7498;DHT22;3790;48.806;9.140;2022-09-03T08:37:14;23.30;99.90
7498;DHT22;3790;48.806;9.140;2022-09-03T08:42:38;22.80;99.90
7498;DHT22;3790;48.806;9.140;2022-09-03T08:48:00;23.30;99.90
7498;DHT22;3790;48.806;9.140;2022-09-03T08:58:16;22.60;99.90
7498;DHT22;3790;48.806;9.140;2022-09-03T09:09:38;22.60;99.90
7498;DHT22;3790;48.806;9.140;2022-09-03T09:15:17;22.30;99.90
7498;DHT22;3790;48.806;9.140;2022-09-03T09:25:48;22.60;99.90
7498;DHT22;3790;48.806;9.140;2022-09-03T09:30:52;22.40;99.90
7498;DHT22;3790;48.806;9.140;2022-09-03T09:35:53;22.40;99.90
7498;DHT22;3790;48.806;9.140;2022-09-03T09:40:54;23.30;99.90
7498;DHT22;3790;48.806;9.140;2022-09-03T09:46:11;22.50;99.90
7498;DHT22;3790;48.806;9.140;2022-09-03T09:51:16;21.70;99.90
7498;DHT22;3790;48.806;9.140;2022-09-03T09:56:24;22.60;99.90
7498;DHT22;3790;48.806;9.140;2022-09-03T10:01:25;23.10;99.90
7498;DHT22;3790;48.806;9.140;2022-09-03T10:06:30;23.50;99.90
7498;DHT22;3790;48.806;9.140;2022-09-03T10:22:40;23.20;99.90
7498;DHT22;3790;48.806;9.140;2022-09-03T10:27:43;23.50;99.90
7498;DHT22;3790;48.806;9.140;2022-09-03T10:38:17;24.00;99.90
7498;DHT22;3790;48.806;9.140;2022-09-03T10:43:48;24.40;99.90
7498;DHT22;3790;48.806;9.140;2022-09-03T10:54:44;24.90;99.90
7498;DHT22;3790;48.806;9.140;2022-09-03T10:59:55;25.60;99.90
7498;DHT22;3790;48.806;9.140;2022-09-03T11:05:13;25.90;99.90
7498;DHT22;3790;48.806;9.140;2022-09-03T11:10:22;26.10;99.90
7498;DHT22;3790;48.806;9.140;2022-09-03T11:15:32;26.40;99.90
7498;DHT22;3790;48.806;9.140;2022-09-03T11:20:34;26.50;99.90
7498;DHT22;3790;48.806;9.140;2022-09-03T11:25:44;26.60;99.90
7498;DHT22;3790;48.806;9.140;2022-09-03T11:36:36;27.00;99.90
7498;DHT22;3790;48.806;9.140;2022-09-03T11:41:38;26.90;99.90
7498;DHT22;3790;48.806;9.140;2022-09-03T11:46:39;26.70;99.90
7498;DHT22;3790;48.806;9.140;2022-09-03T11:51:40;26.20;99.90
7498;DHT22;3790;48.806;9.140;2022-09-03T11:56:43;25.80;99.90
7498;DHT22;3790;48.806;9.140;2022-09-03T12:11:59;24.50;99.90
7498;DHT22;3790;48.806;9.140;2022-09-03T12:22:27;23.80;99.90
7498;DHT22;3790;48.806;9.140;2022-09-03T12:27:32;23.30;99.90
7498;DHT22;3790;48.806;9.140;2022-09-03T12:32:34;22.80;99.90
7498;DHT22;3790;48.806;9.140;2022-09-03T12:37:40;22.60;99.90
7498;DHT22;3790;48.806;9.140;2022-09-03T12:42:42;22.50;99.90
7498;DHT22;3790;48.806;9.140;2022-09-03T12:47:42;21.50;99.90
7498;DHT22;3790;48.806;9.140;2022-09-03T12:52:56;18.50;99.90
7498;DHT22;3790;48.806;9.140;2022-09-03T12:58:24;16.90;99.90
7498;DHT22;3790;48.806;9.140;2022-09-03T13:03:30;16.30;99.90
7498;DHT22;3790;48.806;9.140;2022-09-03T13:08:43;16.40;99.90
7498;DHT22;3790;48.806;9.140;2022-09-03T13:13:55;16.70;99.90
7498;DHT22;3790;48.806;9.140;2022-09-03T13:24:37;17.40;99.90
7498;DHT22;3790;48.806;9.140;2022-09-03T13:35:27;18.60;99.90
7498;DHT22;3790;48.806;9.140;2022-09-03T13:40:49;20.30;99.90
7498;DHT22;3790;48.806;9.140;2022-09-03T13:46:02;23.00;99.90
7498;DHT22;3790;48.806;9.140;2022-09-03T13:51:30;25.40;99.90
7498;DHT22;3790;48.806;9.140;2022-09-03T14:08:27;24.90;99.90
7498;DHT22;3790;48.806;9.140;2022-09-03T14:14:09;26.30;99.90
7498;DHT22;3790;48.806;9.140;2022-09-03T14:19:16;26.80;99.90
7498;DHT22;3790;48.806;9.140;2022-09-03T14:24:25;27.70;99.90
7498;DHT22;3790;48.806;9.140;2022-09-03T14:29:31;30.50;99.90
7498;DHT22;3790;48.806;9.140;2022-09-03T14:45:59;28.10;99.90
7498;DHT22;3790;48.806;9.140;2022-09-03T14:51:40;26.70;99.90
7498;DHT22;3790;48.806;9.140;2022-09-03T14:57:02;24.40;99.90
7498;DHT22;3790;48.806;9.140;2022-09-03T15:07:58;24.20;99.90
7498;DHT22;3790;48.806;9.140;2022-09-03T15:13:26;32.60;99.90
7498;DHT22;3790;48.806;9.140;2022-09-03T15:18:50;38.90;99.70
7498;DHT22;3790;48.806;9.140;2022-09-03T15:34:56;28.90;99.90
7498;DHT22;3790;48.806;9.140;2022-09-03T15:40:57;27.60;99.90
7498;DHT22;3790;48.806;9.140;2022-09-03T15:50:57;31.70;99.90
7498;DHT22;3790;48.806;9.140;2022-09-03T16:01:39;29.80;99.90
7498;DHT22;3790;48.806;9.140;2022-09-03T16:06:57;28.10;99.90
7498;DHT22;3790;48.806;9.140;2022-09-03T16:18:58;27.90;99.90
7498;DHT22;3790;48.806;9.140;2022-09-03T16:28:52;25.50;99.90
7498;DHT22;3790;48.806;9.140;2022-09-03T16:33:59;24.70;99.90
7498;DHT22;3790;48.806;9.140;2022-09-03T16:39:23;24.00;99.90
7498;DHT22;3790;48.806;9.140;2022-09-03T16:44:53;23.50;99.90
7498;DHT22;3790;48.806;9.140;2022-09-03T17:00:27;23.10;99.90
7498;DHT22;3790;48.806;9.140;2022-09-03T17:11:37;24.50;99.90
7498;DHT22;3790;48.806;9.140;2022-09-03T17:17:20;26.80;99.90
7498;DHT22;3790;48.806;9.140;2022-09-03T17:22:47;31.50;99.90
7498;DHT22;3790;48.806;9.140;2022-09-03T17:33:53;33.80;99.90
7498;DHT22;3790;48.806;9.140;2022-09-03T17:39:17;32.70;99.90
7498;DHT22;3790;48.806;9.140;2022-09-03T17:50:20;26.40;99.90
7498;DHT22;3790;48.806;9.140;2022-09-03T17:55:43;24.00;99.90
7498;DHT22;3790;48.806;9.140;2022-09-03T18:06:21;21.50;99.90
7498;DHT22;3790;48.806;9.140;2022-09-03T18:11:40;20.80;99.90
7498;DHT22;3790;48.806;9.140;2022-09-03T18:17:05;20.20;99.90
7498;DHT22;3790;48.806;9.140;2022-09-03T18:22:07;19.80;99.90
7498;DHT22;3790;48.806;9.140;2022-09-03T18:32:47;19.20;99.90
7498;DHT22;3790;48.806;9.140;2022-09-03T18:38:06;18.90;99.90
7498;DHT22;3790;48.806;9.140;2022-09-03T18:54:58;18.80;99.90
7498;DHT22;3790;48.806;9.140;2022-09-03T19:00:19;18.80;99.90
7498;DHT22;3790;48.806;9.140;2022-09-03T19:05:52;18.70;99.90
7498;DHT22;3790;48.806;9.140;2022-09-03T19:11:52;18.50;99.90
7498;DHT22;3790;48.806;9.140;2022-09-03T19:17:31;18.60;99.90
7498;DHT22;3790;48.806;9.140;2022-09-03T19:22:54;18.60;99.90
7498;DHT22;3790;48.806;9.140;2022-09-03T19:28:14;18.60;99.90
7498;DHT22;3790;48.806;9.140;2022-09-03T19:33:48;18.60;99.90
7498;DHT22;3790;48.806;9.140;2022-09-03T19:45:59;18.40;99.90
7498;DHT22;3790;48.806;9.140;2022-09-03T19:51:31;18.30;99.90
7498;DHT22;3790;48.806;9.140;2022-09-03T19:56:56;18.10;99.90
7498;DHT22;3790;48.806;9.140;2022-09-03T20:02:15;18.00;99.90
7498;DHT22;3790;48.806;9.140;2022-09-03T20:07:35;17.90;99.90
7498;DHT22;3790;48.806;9.140;2022-09-03T20:18:16;17.80;99.90
7498;DHT22;3790;48.806;9.140;2022-09-03T20:23:39;17.70;99.90
7498;DHT22;3790;48.806;9.140;2022-09-03T20:29:05;17.60;99.90
7498;DHT22;3790;48.806;9.140;2022-09-03T20:39:35;17.40;99.90
7498;DHT22;3790;48.806;9.140;2022-09-03T20:55:20;17.20;99.90
7498;DHT22;3790;48.806;9.140;2022-09-03T21:00:22;17.10;99.90
7498;DHT22;3790;48.806;9.140;2022-09-03T21:15:57;17.30;99.90
7498;DHT22;3790;48.806;9.140;2022-09-03T21:21:18;17.40;99.90
7498;DHT22;3790;48.806;9.140;2022-09-03T21:26:28;17.50;99.90
7498;DHT22;3790;48.806;9.140;2022-09-03T21:31:36;17.70;99.90
7498;DHT22;3790;48.806;9.140;2022-09-03T21:36:41;17.80;99.90
7498;DHT22;3790;48.806;9.140;2022-09-03T21:42:55;17.80;99.90
7498;DHT22;3790;48.806;9.140;2022-09-03T21:47:26;17.90;99.90
7498;DHT22;3790;48.806;9.140;2022-09-03T21:52:39;17.90;99.90
7498;DHT22;3790;48.806;9.140;2022-09-03T21:57:57;17.90;99.90
7498;DHT22;3790;48.806;9.140;2022-09-03T22:03:02;17.90;99.90
7498;DHT22;3790;48.806;9.140;2022-09-03T22:08:25;17.80;99.90
7498;DHT22;3790;48.806;9.140;2022-09-03T22:18:48;17.10;99.90
7498;DHT22;3790;48.806;9.140;2022-09-03T22:23:55;17.10;99.90
7498;DHT22;3790;48.806;9.140;2022-09-03T22:39:38;16.80;99.90
7498;DHT22;3790;48.806;9.140;2022-09-03T22:45:09;16.70;99.90
7498;DHT22;3790;48.806;9.140;2022-09-03T22:50:27;16.90;99.90
7498;DHT22;3790;48.806;9.140;2022-09-03T22:55:30;17.10;99.90
7498;DHT22;3790;48.806;9.140;2022-09-03T23:00:39;17.20;99.90
7498;DHT22;3790;48.806;9.140;2022-09-03T23:05:50;17.20;99.90
7498;DHT22;3790;48.806;9.140;2022-09-03T23:10:59;17.00;99.90
7498;DHT22;3790;48.806;9.140;2022-09-03T23:21:38;16.80;99.90
7498;DHT22;3790;48.806;9.140;2022-09-03T23:26:46;16.70;99.90
7498;DHT22;3790;48.806;9.140;2022-09-03T23:31:48;16.60;99.90
